sensor_id;sensor_type;location;lat;lon;timestamp;temperature;humidity
24446;DHT22;13347;50.984;5.822;2024-03-07T00:00:32;5.40;99.90
24446;DHT22;13347;50.984;5.822;2024-03-07T00:02:59;5.40;99.90
24446;DHT22;13347;50.984;5.822;2024-03-07T00:05:26;5.20;99.90
24446;DHT22;13347;50.984;5.822;2024-03-07T00:07:53;5.20;99.90
24446;DHT22;13347;50.984;5.822;2024-03-07T00:10:21;5.10;99.90
24446;DHT22;13347;50.984;5.822;2024-03-07T00:12:48;5.10;99.90
24446;DHT22;13347;50.984;5.822;2024-03-07T00:15:15;5.00;99.90
24446;DHT22;13347;50.984;5.822;2024-03-07T00:17:43;5.00;99.90
24446;DHT22;13347;50.984;5.822;2024-03-07T00:20:10;4.80;99.90
24446;DHT22;13347;50.984;5.822;2024-03-07T00:22:39;4.80;99.90
24446;DHT22;13347;50.984;5.822;2024-03-07T00:25:07;4.80;99.90
24446;DHT22;13347;50.984;5.822;2024-03-07T00:27:36;4.70;99.90
24446;DHT22;13347;50.984;5.822;2024-03-07T00:30:03;4.80;99.90
24446;DHT22;13347;50.984;5.822;2024-03-07T00:32:31;4.90;99.90
24446;DHT22;13347;50.984;5.822;2024-03-07T00:35:01;4.90;99.90
24446;DHT22;13347;50.984;5.822;2024-03-07T00:37:29;4.80;99.90
24446;DHT22;13347;50.984;5.822;2024-03-07T00:39:56;4.50;99.90
24446;DHT22;13347;50.984;5.822;2024-03-07T00:42:23;4.40;99.90
24446;DHT22;13347;50.984;5.822;2024-03-07T00:44:51;4.30;99.90
24446;DHT22;13347;50.984;5.822;2024-03-07T00:47:18;4.20;99.90
24446;DHT22;13347;50.984;5.822;2024-03-07T00:49:45;4.20;99.90
24446;DHT22;13347;50.984;5.822;2024-03-07T00:52:12;4.20;99.90
24446;DHT22;13347;50.984;5.822;2024-03-07T00:54:39;4.20;99.90
24446;DHT22;13347;50.984;5.822;2024-03-07T00:57:06;4.10;99.90
24446;DHT22;13347;50.984;5.822;2024-03-07T00:59:34;4.10;99.90
24446;DHT22;13347;50.984;5.822;2024-03-07T01:02:02;4.10;99.90
24446;DHT22;13347;50.984;5.822;2024-03-07T01:04:29;4.10;99.90
24446;DHT22;13347;50.984;5.822;2024-03-07T01:06:58;4.20;99.90
24446;DHT22;13347;50.984;5.822;2024-03-07T01:09:25;4.20;99.90
24446;DHT22;13347;50.984;5.822;2024-03-07T01:11:54;4.00;99.90
24446;DHT22;13347;50.984;5.822;2024-03-07T01:14:21;4.00;99.90
24446;DHT22;13347;50.984;5.822;2024-03-07T01:16:48;4.10;99.90
24446;DHT22;13347;50.984;5.822;2024-03-07T01:19:17;4.10;99.90
24446;DHT22;13347;50.984;5.822;2024-03-07T01:21:44;4.10;99.90
24446;DHT22;13347;50.984;5.822;2024-03-07T01:24:11;4.10;99.90
24446;DHT22;13347;50.984;5.822;2024-03-07T01:26:38;4.00;99.90
24446;DHT22;13347;50.984;5.822;2024-03-07T01:29:05;3.90;99.90
24446;DHT22;13347;50.984;5.822;2024-03-07T01:31:32;3.70;99.90
24446;DHT22;13347;50.984;5.822;2024-03-07T01:33:59;3.50;99.90
24446;DHT22;13347;50.984;5.822;2024-03-07T01:36:27;3.50;99.90
24446;DHT22;13347;50.984;5.822;2024-03-07T01:38:55;3.50;99.90
24446;DHT22;13347;50.984;5.822;2024-03-07T01:41:22;3.50;99.90
24446;DHT22;13347;50.984;5.822;2024-03-07T01:43:49;3.50;99.90
24446;DHT22;13347;50.984;5.822;2024-03-07T01:46:16;3.60;99.90
24446;DHT22;13347;50.984;5.822;2024-03-07T01:48:45;3.50;99.90
24446;DHT22;13347;50.984;5.822;2024-03-07T01:51:12;3.60;99.90
24446;DHT22;13347;50.984;5.822;2024-03-07T01:53:40;3.70;99.90
24446;DHT22;13347;50.984;5.822;2024-03-07T01:56:07;3.80;99.90
24446;DHT22;13347;50.984;5.822;2024-03-07T01:58:35;3.80;99.90
24446;DHT22;13347;50.984;5.822;2024-03-07T02:01:02;3.70;99.90
24446;DHT22;13347;50.984;5.822;2024-03-07T02:03:29;3.80;99.90
24446;DHT22;13347;50.984;5.822;2024-03-07T02:05:56;3.70;99.90
24446;DHT22;13347;50.984;5.822;2024-03-07T02:08:24;3.80;99.90
24446;DHT22;13347;50.984;5.822;2024-03-07T02:10:52;3.70;99.90
24446;DHT22;13347;50.984;5.822;2024-03-07T02:13:19;3.70;99.90
24446;DHT22;13347;50.984;5.822;2024-03-07T02:15:46;3.60;99.90
24446;DHT22;13347;50.984;5.822;2024-03-07T02:18:13;3.50;99.90
24446;DHT22;13347;50.984;5.822;2024-03-07T02:20:43;3.40;99.90
24446;DHT22;13347;50.984;5.822;2024-03-07T02:23:10;3.50;99.90
24446;DHT22;13347;50.984;5.822;2024-03-07T02:25:37;3.60;99.90
24446;DHT22;13347;50.984;5.822;2024-03-07T02:28:04;3.60;99.90
24446;DHT22;13347;50.984;5.822;2024-03-07T02:30:31;3.70;99.90
24446;DHT22;13347;50.984;5.822;2024-03-07T02:32:58;3.70;99.90
24446;DHT22;13347;50.984;5.822;2024-03-07T02:35:32;3.70;99.90
24446;DHT22;13347;50.984;5.822;2024-03-07T02:38:01;3.50;99.90
24446;DHT22;13347;50.984;5.822;2024-03-07T02:40:28;3.50;99.90
24446;DHT22;13347;50.984;5.822;2024-03-07T02:42:55;3.50;99.90
24446;DHT22;13347;50.984;5.822;2024-03-07T02:45:22;3.50;99.90
24446;DHT22;13347;50.984;5.822;2024-03-07T02:47:49;3.50;99.90
24446;DHT22;13347;50.984;5.822;2024-03-07T02:50:17;3.70;99.90
24446;DHT22;13347;50.984;5.822;2024-03-07T02:52:44;3.50;99.90
24446;DHT22;13347;50.984;5.822;2024-03-07T02:55:12;3.30;99.90
24446;DHT22;13347;50.984;5.822;2024-03-07T02:57:39;3.20;99.90
24446;DHT22;13347;50.984;5.822;2024-03-07T03:00:06;3.10;99.90
24446;DHT22;13347;50.984;5.822;2024-03-07T03:02:45;3.00;99.90
24446;DHT22;13347;50.984;5.822;2024-03-07T03:05:12;2.90;99.90
24446;DHT22;13347;50.984;5.822;2024-03-07T03:07:39;2.80;99.90
24446;DHT22;13347;50.984;5.822;2024-03-07T03:10:07;2.80;99.90
24446;DHT22;13347;50.984;5.822;2024-03-07T03:12:36;2.90;99.90
24446;DHT22;13347;50.984;5.822;2024-03-07T03:15:04;3.00;99.90
24446;DHT22;13347;50.984;5.822;2024-03-07T03:17:31;3.00;99.90
24446;DHT22;13347;50.984;5.822;2024-03-07T03:19:58;3.10;99.90
24446;DHT22;13347;50.984;5.822;2024-03-07T03:22:25;3.30;99.90
24446;DHT22;13347;50.984;5.822;2024-03-07T03:24:53;3.40;99.90
24446;DHT22;13347;50.984;5.822;2024-03-07T03:27:21;3.60;99.90
24446;DHT22;13347;50.984;5.822;2024-03-07T03:29:50;3.70;99.90
24446;DHT22;13347;50.984;5.822;2024-03-07T03:32:17;3.80;99.90
24446;DHT22;13347;50.984;5.822;2024-03-07T03:34:44;3.90;99.90
24446;DHT22;13347;50.984;5.822;2024-03-07T03:37:11;3.90;99.90
24446;DHT22;13347;50.984;5.822;2024-03-07T03:39:38;3.90;99.90
24446;DHT22;13347;50.984;5.822;2024-03-07T03:42:08;3.80;99.90
24446;DHT22;13347;50.984;5.822;2024-03-07T03:44:35;3.80;99.90
24446;DHT22;13347;50.984;5.822;2024-03-07T03:47:04;3.80;99.90
24446;DHT22;13347;50.984;5.822;2024-03-07T03:49:31;3.80;99.90
24446;DHT22;13347;50.984;5.822;2024-03-07T03:51:57;3.70;99.90
24446;DHT22;13347;50.984;5.822;2024-03-07T03:54:25;3.70;99.90
24446;DHT22;13347;50.984;5.822;2024-03-07T03:56:53;3.60;99.90
24446;DHT22;13347;50.984;5.822;2024-03-07T03:59:19;3.50;99.90
24446;DHT22;13347;50.984;5.822;2024-03-07T04:01:46;3.50;99.90
24446;DHT22;13347;50.984;5.822;2024-03-07T04:04:15;3.50;99.90
24446;DHT22;13347;50.984;5.822;2024-03-07T04:06:42;3.60;99.90
24446;DHT22;13347;50.984;5.822;2024-03-07T04:09:10;3.60;99.90
24446;DHT22;13347;50.984;5.822;2024-03-07T04:11:37;3.60;99.90
24446;DHT22;13347;50.984;5.822;2024-03-07T04:14:04;3.70;99.90
24446;DHT22;13347;50.984;5.822;2024-03-07T04:16:31;3.70;99.90
24446;DHT22;13347;50.984;5.822;2024-03-07T04:18:58;3.70;99.90
24446;DHT22;13347;50.984;5.822;2024-03-07T04:21:27;3.70;99.90
24446;DHT22;13347;50.984;5.822;2024-03-07T04:23:54;3.60;99.90
24446;DHT22;13347;50.984;5.822;2024-03-07T04:26:21;3.60;99.90
24446;DHT22;13347;50.984;5.822;2024-03-07T04:28:47;3.60;99.90
24446;DHT22;13347;50.984;5.822;2024-03-07T04:31:13;3.60;99.90
24446;DHT22;13347;50.984;5.822;2024-03-07T04:33:40;3.50;99.90
24446;DHT22;13347;50.984;5.822;2024-03-07T04:36:07;3.50;99.90
24446;DHT22;13347;50.984;5.822;2024-03-07T04:38:35;3.60;99.90
24446;DHT22;13347;50.984;5.822;2024-03-07T04:41:03;3.60;99.90
24446;DHT22;13347;50.984;5.822;2024-03-07T04:43:30;3.60;99.90
24446;DHT22;13347;50.984;5.822;2024-03-07T04:45:58;3.60;99.90
24446;DHT22;13347;50.984;5.822;2024-03-07T04:48:25;3.60;99.90
24446;DHT22;13347;50.984;5.822;2024-03-07T04:50:52;3.70;99.90
24446;DHT22;13347;50.984;5.822;2024-03-07T04:53:19;3.60;99.90
24446;DHT22;13347;50.984;5.822;2024-03-07T04:55:48;3.60;99.90
24446;DHT22;13347;50.984;5.822;2024-03-07T04:58:15;3.60;99.90
24446;DHT22;13347;50.984;5.822;2024-03-07T05:00:42;3.60;99.90
24446;DHT22;13347;50.984;5.822;2024-03-07T05:03:09;3.50;99.90
24446;DHT22;13347;50.984;5.822;2024-03-07T05:05:36;3.50;99.90
24446;DHT22;13347;50.984;5.822;2024-03-07T05:08:03;3.50;99.90
24446;DHT22;13347;50.984;5.822;2024-03-07T05:10:30;3.50;99.90
24446;DHT22;13347;50.984;5.822;2024-03-07T05:12:59;3.50;99.90
24446;DHT22;13347;50.984;5.822;2024-03-07T05:15:26;3.40;99.90
24446;DHT22;13347;50.984;5.822;2024-03-07T05:17:53;3.40;99.90
24446;DHT22;13347;50.984;5.822;2024-03-07T05:20:21;3.40;99.90
24446;DHT22;13347;50.984;5.822;2024-03-07T05:22:48;3.40;99.90
24446;DHT22;13347;50.984;5.822;2024-03-07T05:25:16;3.30;99.90
24446;DHT22;13347;50.984;5.822;2024-03-07T05:27:44;3.30;99.90
24446;DHT22;13347;50.984;5.822;2024-03-07T05:30:12;3.30;99.90
24446;DHT22;13347;50.984;5.822;2024-03-07T05:32:40;3.40;99.90
24446;DHT22;13347;50.984;5.822;2024-03-07T05:35:08;3.20;99.90
24446;DHT22;13347;50.984;5.822;2024-03-07T05:37:36;3.20;99.90
24446;DHT22;13347;50.984;5.822;2024-03-07T05:40:07;3.20;99.90
24446;DHT22;13347;50.984;5.822;2024-03-07T05:42:34;3.10;99.90
24446;DHT22;13347;50.984;5.822;2024-03-07T05:45:01;3.20;99.90
24446;DHT22;13347;50.984;5.822;2024-03-07T05:47:30;3.10;99.90
24446;DHT22;13347;50.984;5.822;2024-03-07T05:49:57;3.00;99.90
24446;DHT22;13347;50.984;5.822;2024-03-07T05:52:24;3.10;99.90
24446;DHT22;13347;50.984;5.822;2024-03-07T05:54:50;3.00;99.90
24446;DHT22;13347;50.984;5.822;2024-03-07T05:57:17;2.90;99.90
24446;DHT22;13347;50.984;5.822;2024-03-07T05:59:45;2.80;99.90
24446;DHT22;13347;50.984;5.822;2024-03-07T06:02:13;2.80;99.90
24446;DHT22;13347;50.984;5.822;2024-03-07T06:04:42;2.80;99.90
24446;DHT22;13347;50.984;5.822;2024-03-07T06:07:09;2.90;99.90
24446;DHT22;13347;50.984;5.822;2024-03-07T06:09:37;3.00;99.90
24446;DHT22;13347;50.984;5.822;2024-03-07T06:12:04;3.10;99.90
24446;DHT22;13347;50.984;5.822;2024-03-07T06:14:34;3.10;99.90
24446;DHT22;13347;50.984;5.822;2024-03-07T06:17:01;3.10;99.90
24446;DHT22;13347;50.984;5.822;2024-03-07T06:19:28;3.00;99.90
24446;DHT22;13347;50.984;5.822;2024-03-07T06:21:57;3.00;99.90
24446;DHT22;13347;50.984;5.822;2024-03-07T06:24:24;3.10;99.90
24446;DHT22;13347;50.984;5.822;2024-03-07T06:26:55;3.10;99.90
24446;DHT22;13347;50.984;5.822;2024-03-07T06:29:29;3.10;99.90
24446;DHT22;13347;50.984;5.822;2024-03-07T06:31:56;3.10;99.90
24446;DHT22;13347;50.984;5.822;2024-03-07T06:34:24;3.20;99.90
24446;DHT22;13347;50.984;5.822;2024-03-07T06:36:50;3.20;99.90
24446;DHT22;13347;50.984;5.822;2024-03-07T06:39:18;3.30;99.90
24446;DHT22;13347;50.984;5.822;2024-03-07T06:41:47;3.40;99.90
24446;DHT22;13347;50.984;5.822;2024-03-07T06:44:14;3.30;99.90
24446;DHT22;13347;50.984;5.822;2024-03-07T06:46:42;3.40;99.90
24446;DHT22;13347;50.984;5.822;2024-03-07T06:49:11;3.50;99.90
24446;DHT22;13347;50.984;5.822;2024-03-07T06:51:38;3.50;99.90
24446;DHT22;13347;50.984;5.822;2024-03-07T06:54:05;3.60;99.90
24446;DHT22;13347;50.984;5.822;2024-03-07T06:56:33;3.70;99.90
24446;DHT22;13347;50.984;5.822;2024-03-07T06:59:00;3.70;99.90
24446;DHT22;13347;50.984;5.822;2024-03-07T07:01:30;3.70;99.90
24446;DHT22;13347;50.984;5.822;2024-03-07T07:03:57;3.70;99.90
24446;DHT22;13347;50.984;5.822;2024-03-07T07:06:24;3.70;99.90
